createdAt,value
2022-09-14T00:01:44.786Z,97301.53
2022-09-14T00:04:15.824Z,97304.34
2022-09-14T00:06:44.530Z,97291.41
2022-09-14T00:09:17.211Z,97289.75
2022-09-14T00:11:46.179Z,97292.56
2022-09-14T00:14:16.525Z,97295.50
2022-09-14T00:16:45.594Z,97294.88
2022-09-14T00:19:26.217Z,97298.34
2022-09-14T00:21:58.827Z,97302.63
2022-09-14T00:24:31.222Z,97289.66
2022-09-14T00:26:59.602Z,97284.78
2022-09-14T00:29:29.395Z,97279.69
2022-09-14T00:31:58.510Z,97264.94
2022-09-14T00:34:26.831Z,97257.88
2022-09-14T00:36:55.680Z,97252.13
2022-09-14T00:39:25.549Z,97242.91
2022-09-14T00:41:54.122Z,97243.78
2022-09-14T00:45:05.562Z,97239.50
2022-09-14T00:47:34.145Z,97233.28
2022-09-14T00:50:05.246Z,97240.16
2022-09-14T00:52:36.864Z,97233.28
2022-09-14T00:55:09.146Z,97234.91
2022-09-14T00:57:44.396Z,97234.25
2022-09-14T01:00:18.346Z,97228.34
2022-09-14T01:02:46.964Z,97218.19
2022-09-14T01:05:15.787Z,97218.53
2022-09-14T01:08:09.671Z,97208.03
2022-09-14T01:11:11.653Z,97201.66
2022-09-14T01:13:50.203Z,97204.09
2022-09-14T01:16:29.510Z,97201.47
2022-09-14T01:19:00.409Z,97187.53
2022-09-14T01:21:33.721Z,97181.47
2022-09-14T01:24:08.370Z,97175.41
2022-09-14T01:27:16.936Z,97191.16
2022-09-14T01:29:50.937Z,97256.06
2022-09-14T01:32:23.058Z,97337.72
2022-09-14T01:34:58.588Z,97325.47
2022-09-14T01:37:31.962Z,97343.00
2022-09-14T01:40:05.468Z,97284.69
2022-09-14T01:42:36.695Z,97294.44
2022-09-14T01:45:11.407Z,97288.69
2022-09-14T01:47:44.028Z,97287.63
2022-09-14T01:50:18.486Z,97300.66
2022-09-14T01:52:51.841Z,97309.78
2022-09-14T01:55:25.836Z,97299.25
2022-09-14T01:58:03.213Z,97296.50
2022-09-14T02:00:32.786Z,97303.84
2022-09-14T02:03:07.723Z,97313.19
2022-09-14T02:05:40.523Z,97317.06
2022-09-14T02:08:09.355Z,97321.31
2022-09-14T02:10:37.871Z,97328.13
2022-09-14T02:13:07.908Z,97323.41
2022-09-14T02:15:37.372Z,97323.31
2022-09-14T02:18:06.319Z,97324.03
2022-09-14T02:20:41.570Z,97324.69
2022-09-14T02:23:10.881Z,97318.00
2022-09-14T02:25:41.114Z,97325.78
2022-09-14T02:28:10.796Z,97326.13
2022-09-14T02:30:49.728Z,97314.06
2022-09-14T02:33:28.511Z,97304.13
2022-09-14T02:36:00.142Z,97306.44
2022-09-14T02:38:37.683Z,97310.81
2022-09-14T02:41:19.195Z,97312.31
2022-09-14T02:43:55.902Z,97306.25
2022-09-14T02:46:34.654Z,97307.91
2022-09-14T02:49:22.215Z,97313.44
2022-09-14T02:51:58.797Z,97323.25
2022-09-14T02:54:37.553Z,97319.91
2022-09-14T02:57:06.274Z,97308.94
2022-09-14T02:59:36.225Z,97293.72
2022-09-14T03:02:04.851Z,97292.91
2022-09-14T03:04:33.177Z,97292.25
2022-09-14T03:07:01.425Z,97280.81
2022-09-14T03:09:29.765Z,97260.56
2022-09-14T03:11:58.063Z,97263.53
2022-09-14T03:14:26.325Z,97266.78
2022-09-14T03:16:55.972Z,97269.28
2022-09-14T03:19:24.161Z,97271.22
2022-09-14T03:21:52.521Z,97264.84
2022-09-14T03:26:52.102Z,97259.75
2022-09-14T03:29:20.428Z,97267.31
2022-09-14T03:31:48.674Z,97258.13
2022-09-14T03:34:18.604Z,97240.63
2022-09-14T03:36:46.858Z,97235.41
2022-09-14T03:39:15.257Z,97246.69
2022-09-14T03:41:43.416Z,97239.81
2022-09-14T03:44:11.893Z,97248.50
2022-09-14T03:46:40.448Z,97246.03
2022-09-14T03:49:08.736Z,97234.91
2022-09-14T03:51:38.740Z,97240.63
2022-09-14T03:54:07.448Z,97233.78
2022-09-14T03:56:35.795Z,97223.47
2022-09-14T03:59:04.171Z,97221.19
2022-09-14T04:01:33.357Z,97213.97
2022-09-14T04:04:01.889Z,97218.56
2022-09-14T04:06:30.205Z,97213.34
2022-09-14T04:09:00.017Z,97203.84
2022-09-14T04:11:30.666Z,97205.81
2022-09-14T04:14:03.396Z,97205.81
2022-09-14T04:16:32.318Z,97208.25
2022-09-14T04:19:00.545Z,97203.19
2022-09-14T04:21:28.937Z,97202.06
2022-09-14T04:24:16.417Z,97179.34
2022-09-14T04:26:46.010Z,97174.09
2022-09-14T04:29:15.113Z,97195.34
2022-09-14T04:31:43.521Z,97190.44
2022-09-14T04:34:13.917Z,97185.47
2022-09-14T04:36:42.735Z,97187.75
2022-09-14T04:39:15.138Z,97181.22
2022-09-14T04:41:43.569Z,97181.00
2022-09-14T04:44:12.579Z,97173.66
2022-09-14T04:46:46.186Z,97174.13
2022-09-14T04:49:16.680Z,97185.56
2022-09-14T04:51:45.126Z,97185.06
2022-09-14T04:54:18.067Z,97184.56
2022-09-14T04:56:47.210Z,97191.88
2022-09-14T04:59:16.283Z,97186.28
2022-09-14T05:01:47.931Z,97189.88
2022-09-14T05:04:16.964Z,97189.66
2022-09-14T05:06:45.966Z,97194.91
2022-09-14T05:09:18.599Z,97195.75
2022-09-14T05:11:47.345Z,97195.06
2022-09-14T05:14:15.873Z,97187.22
2022-09-14T05:16:45.536Z,97195.22
2022-09-14T05:19:17.577Z,97193.75
2022-09-14T05:21:46.885Z,97233.22
2022-09-14T05:24:18.954Z,97248.50
2022-09-14T05:26:48.084Z,97212.38
2022-09-14T05:29:20.250Z,97230.66
2022-09-14T05:31:48.937Z,97242.13
2022-09-14T05:34:17.848Z,97246.91
2022-09-14T05:36:46.257Z,97256.22
2022-09-14T05:39:19.797Z,97248.09
2022-09-14T05:41:51.062Z,97241.22
2022-09-14T05:44:19.442Z,97235.31
2022-09-14T05:46:47.911Z,97239.56
2022-09-14T05:49:16.174Z,97235.31
2022-09-14T05:51:44.495Z,97230.09
2022-09-14T05:54:12.713Z,97228.81
2022-09-14T05:56:42.493Z,97225.22
2022-09-14T05:59:11.064Z,97206.78
2022-09-14T06:01:39.556Z,97208.91
2022-09-14T06:04:07.843Z,97205.31
2022-09-14T06:06:36.249Z,97199.97
2022-09-14T06:09:05.420Z,97191.94
2022-09-14T06:11:36.763Z,97197.84
2022-09-14T06:14:07.412Z,97205.53
2022-09-14T06:16:36.075Z,97208.44
2022-09-14T06:19:04.958Z,97213.53
2022-09-14T06:21:35.508Z,97214.50
2022-09-14T06:24:04.550Z,97224.00
2022-09-14T06:26:33.174Z,97223.47
2022-09-14T06:29:01.412Z,97230.13
2022-09-14T06:31:31.080Z,97230.94
2022-09-14T06:33:59.412Z,97227.81
2022-09-14T06:36:29.570Z,97221.31
2022-09-14T06:39:00.248Z,97221.00
2022-09-14T06:41:30.572Z,97224.00
2022-09-14T06:44:01.599Z,97214.84
2022-09-14T06:46:33.145Z,97215.81
2022-09-14T06:49:04.955Z,97207.31
2022-09-14T06:51:36.607Z,97198.31
2022-09-14T06:54:06.600Z,97196.91
2022-09-14T06:56:37.249Z,97190.38
2022-09-14T06:59:06.813Z,97185.78
2022-09-14T07:01:36.726Z,97185.78
2022-09-14T07:04:05.765Z,97187.97
2022-09-14T07:06:41.242Z,97183.09
2022-09-14T07:09:10.105Z,97181.78
2022-09-14T07:11:39.741Z,97184.09
2022-09-14T07:14:08.614Z,97182.59
2022-09-14T07:16:40.288Z,97190.81
2022-09-14T07:19:13.285Z,97196.88
2022-09-14T07:21:42.098Z,97207.16
2022-09-14T07:24:11.962Z,97217.00
2022-09-14T07:26:42.668Z,97218.00
2022-09-14T07:29:15.275Z,97212.94
2022-09-14T07:31:47.915Z,97212.78
2022-09-14T07:34:16.660Z,97212.47
2022-09-14T07:36:45.291Z,97208.56
2022-09-14T07:39:16.840Z,97216.72
2022-09-14T07:41:46.764Z,97202.31
2022-09-14T07:44:17.623Z,97209.38
2022-09-14T07:46:47.945Z,97211.97
2022-09-14T07:49:17.960Z,97219.66
2022-09-14T07:51:47.035Z,97214.13
2022-09-14T07:54:17.435Z,97215.13
2022-09-14T07:56:45.995Z,97211.84
2022-09-14T08:02:07.680Z,97218.41
2022-09-14T08:04:37.633Z,97227.06
2022-09-14T08:07:06.384Z,97224.75
2022-09-14T08:09:34.753Z,97234.72
2022-09-14T08:12:05.709Z,97234.53
2022-09-14T08:14:34.184Z,97238.31
2022-09-14T08:17:02.574Z,97244.53
2022-09-14T08:19:32.222Z,97249.41
2022-09-14T08:22:00.441Z,97242.22
2022-09-14T08:24:28.725Z,97232.03
2022-09-14T08:26:57.285Z,97242.50
2022-09-14T08:29:25.884Z,97239.22
2022-09-14T08:31:54.177Z,97259.50
2022-09-14T08:34:22.626Z,97279.16
2022-09-14T08:36:52.421Z,97269.50
2022-09-14T08:39:21.242Z,97267.34
2022-09-14T08:41:56.444Z,97260.09
2022-09-14T08:44:30.534Z,97260.72
2022-09-14T08:47:03.969Z,97273.19
2022-09-14T08:49:48.861Z,97297.47
2022-09-14T08:52:26.997Z,97306.59
2022-09-14T08:54:57.991Z,97318.06
2022-09-14T08:57:34.403Z,97310.44
2022-09-14T09:00:11.503Z,97300.38
2022-09-14T09:03:20.442Z,97293.22
2022-09-14T09:05:56.225Z,97275.81
2022-09-14T09:08:36.163Z,97263.34
2022-09-14T09:11:07.258Z,97255.22
2022-09-14T09:13:39.371Z,97273.09
2022-09-14T09:16:11.919Z,97270.97
2022-09-14T09:18:43.974Z,97275.88
2022-09-14T09:21:17.817Z,97278.63
2022-09-14T09:23:47.472Z,97293.16
2022-09-14T09:26:23.989Z,97289.75
2022-09-14T09:28:55.659Z,97271.25
2022-09-14T09:31:42.214Z,97283.16
2022-09-14T09:34:39.619Z,97290.94
2022-09-14T09:37:17.999Z,97281.09
2022-09-14T09:39:48.213Z,97287.31
2022-09-14T09:42:23.276Z,97272.81
2022-09-14T09:45:03.266Z,97272.19
2022-09-14T09:47:37.817Z,97266.22
2022-09-14T09:50:17.933Z,97258.31
2022-09-14T09:52:51.361Z,97249.06
2022-09-14T09:55:23.124Z,97250.78
2022-09-14T09:57:51.446Z,97236.84
2022-09-14T10:00:24.144Z,97230.31
2022-09-14T10:02:53.462Z,97216.25
2022-09-14T10:05:25.675Z,97226.06
2022-09-14T10:07:59.862Z,97221.50
2022-09-14T10:10:44.579Z,97211.44
2022-09-14T10:13:21.575Z,97219.31
2022-09-14T10:15:50.289Z,97215.25
2022-09-14T10:18:20.338Z,97200.88
2022-09-14T10:21:09.575Z,97202.53
2022-09-14T10:23:40.114Z,97196.47
2022-09-14T10:26:28.487Z,97200.50
2022-09-14T10:29:35.076Z,97201.75
2022-09-14T10:32:18.032Z,97205.50
2022-09-14T10:34:46.543Z,97179.16
2022-09-14T10:37:33.083Z,97169.47
2022-09-14T10:40:16.975Z,97166.69
2022-09-14T10:43:08.835Z,97156.19
2022-09-14T10:45:41.093Z,97164.09
2022-09-14T10:48:37.729Z,97174.47
2022-09-14T10:51:31.426Z,97153.81
2022-09-14T10:54:11.945Z,97167.59
2022-09-14T10:56:55.985Z,97161.13
2022-09-14T10:59:33.927Z,97138.03
2022-09-14T11:02:47.047Z,97139.09
2022-09-14T11:05:22.522Z,97125.41
2022-09-14T11:08:06.954Z,97125.09
2022-09-14T11:10:49.187Z,97123.44
2022-09-14T11:13:47.271Z,97120.25
2022-09-14T11:16:47.832Z,97127.94
2022-09-14T11:19:32.890Z,97128.59
2022-09-14T11:22:10.431Z,97116.06
2022-09-14T11:24:44.216Z,97115.09
2022-09-14T11:27:22.676Z,97110.88
2022-09-14T11:29:56.268Z,97111.47
2022-09-14T11:32:31.683Z,97106.03
2022-09-14T11:35:11.870Z,97122.56
2022-09-14T11:37:45.717Z,97109.38
2022-09-14T11:40:24.227Z,97108.34
2022-09-14T11:43:00.732Z,97108.38
2022-09-14T11:45:35.632Z,97105.78
2022-09-14T11:48:41.243Z,97100.75
2022-09-14T11:51:08.317Z,97090.59
2022-09-14T11:53:37.571Z,97100.16
2022-09-14T11:56:06.445Z,97097.94
2022-09-14T11:58:34.935Z,97084.53
2022-09-14T12:01:21.794Z,97087.16
2022-09-14T12:04:08.320Z,97099.13
2022-09-14T12:07:05.583Z,97105.63
2022-09-14T12:09:54.622Z,97100.53
2022-09-14T12:12:39.932Z,97105.22
2022-09-14T12:15:32.113Z,97121.06
2022-09-14T12:18:22.575Z,97115.94
2022-09-14T12:21:03.446Z,97124.28
2022-09-14T12:23:43.375Z,97120.66
2022-09-14T12:26:38.316Z,97123.88
2022-09-14T12:29:32.621Z,97121.22
2022-09-14T12:32:26.307Z,97124.69
2022-09-14T12:35:45.496Z,97128.34
2022-09-14T12:39:07.077Z,97113.31
2022-09-14T12:42:02.438Z,97134.22
2022-09-14T12:44:38.105Z,97133.41
2022-09-14T12:47:54.450Z,97144.59
2022-09-14T12:50:23.840Z,97184.34
2022-09-14T12:53:15.614Z,97153.41
2022-09-14T12:55:59.451Z,97150.53
2022-09-14T12:58:56.641Z,97182.59
2022-09-14T13:01:36.539Z,97182.94
2022-09-14T13:04:06.304Z,97197.28
2022-09-14T13:06:42.432Z,97185.16
2022-09-14T13:09:21.109Z,97193.00
2022-09-14T13:11:57.019Z,97185.16
2022-09-14T13:14:30.663Z,97183.94
2022-09-14T13:17:03.167Z,97198.66
2022-09-14T13:19:34.516Z,97181.13
2022-09-14T13:22:04.313Z,97188.53
2022-09-14T13:24:39.437Z,97194.78
2022-09-14T13:27:22.581Z,97219.91
2022-09-14T13:30:00.990Z,97224.53
2022-09-14T13:32:30.167Z,97210.34
2022-09-14T13:34:59.100Z,97217.78
2022-09-14T13:37:27.801Z,97208.63
2022-09-14T13:39:58.976Z,97215.44
2022-09-14T13:42:29.426Z,97205.91
2022-09-14T13:44:58.071Z,97215.94
2022-09-14T13:47:27.125Z,97216.75
2022-09-14T13:49:56.731Z,97217.91
2022-09-14T13:52:57.427Z,97208.56
2022-09-14T13:55:29.013Z,97211.72
2022-09-14T13:58:21.103Z,97204.66
2022-09-14T14:00:57.680Z,97192.59
2022-09-14T14:03:34.100Z,97188.63
2022-09-14T14:06:21.979Z,97175.91
2022-09-14T14:09:10.046Z,97176.00
2022-09-14T14:11:41.152Z,97176.47
2022-09-14T14:14:21.415Z,97173.75
2022-09-14T14:17:40.935Z,97164.53
2022-09-14T14:20:34.924Z,97156.19
2022-09-14T14:23:21.121Z,97147.97
2022-09-14T14:25:54.298Z,97155.00
2022-09-14T14:28:26.576Z,97166.50
2022-09-14T14:30:59.749Z,97172.88
2022-09-14T14:33:28.068Z,97167.31
2022-09-14T14:35:58.632Z,97168.66
2022-09-14T14:38:27.146Z,97180.47
2022-09-14T14:40:58.372Z,97187.88
2022-09-14T14:43:28.243Z,97202.13
2022-09-14T14:46:00.629Z,97209.84
2022-09-14T14:48:30.170Z,97208.75
2022-09-14T14:50:58.561Z,97214.84
2022-09-14T14:53:27.526Z,97213.38
2022-09-14T14:55:55.763Z,97222.53
2022-09-14T14:58:25.078Z,97229.72
2022-09-14T15:00:53.484Z,97211.72
2022-09-14T15:03:23.276Z,97199.00
2022-09-14T15:05:51.808Z,97194.88
2022-09-14T15:08:20.840Z,97198.47
2022-09-14T15:10:49.710Z,97201.09
2022-09-14T15:13:18.009Z,97190.75
2022-09-14T15:15:46.736Z,97183.88
2022-09-14T15:18:14.962Z,97179.50
2022-09-14T15:20:44.759Z,97172.81
2022-09-14T15:23:14.187Z,97164.59
2022-09-14T15:25:42.477Z,97181.00
2022-09-14T15:28:10.746Z,97172.66
2022-09-14T15:30:39.876Z,97153.31
2022-09-14T15:33:08.291Z,97138.28
2022-09-14T15:35:36.862Z,97135.16
2022-09-14T15:38:07.148Z,97132.34
2022-09-14T15:40:35.726Z,97136.78
2022-09-14T15:43:04.549Z,97114.41
2022-09-14T15:45:34.088Z,97110.91
2022-09-14T15:48:03.357Z,97081.56
2022-09-14T15:50:31.632Z,97067.47
2022-09-14T15:53:02.652Z,97090.06
2022-09-14T15:55:32.748Z,97097.31
2022-09-14T15:58:01.063Z,97093.16
2022-09-14T16:00:29.464Z,97088.94
2022-09-14T16:02:57.787Z,97081.41
2022-09-14T16:05:26.186Z,97079.13
2022-09-14T16:07:55.326Z,97080.13
2022-09-14T16:10:25.570Z,97067.66
2022-09-14T16:12:56.353Z,97048.41
2022-09-14T16:15:25.327Z,97049.81
2022-09-14T16:17:55.442Z,97047.63
2022-09-14T16:20:23.742Z,97046.88
2022-09-14T16:22:52.714Z,97053.16
2022-09-14T16:25:21.009Z,97067.81
2022-09-14T16:27:49.849Z,97058.47
2022-09-14T16:30:19.800Z,97080.66
2022-09-14T16:32:48.663Z,97101.16
2022-09-14T16:35:17.061Z,97099.34
2022-09-14T16:37:45.397Z,97105.16
2022-09-14T16:40:13.873Z,97108.84
2022-09-14T16:42:42.918Z,97112.88
2022-09-14T16:45:11.711Z,97114.78
2022-09-14T16:47:41.694Z,97117.94
2022-09-14T16:50:10.813Z,97106.97
2022-09-14T16:52:39.035Z,97117.25
2022-09-14T16:55:08.991Z,97107.56
2022-09-14T16:57:37.216Z,97109.19
2022-09-14T17:00:06.783Z,97113.16
2022-09-14T17:02:35.055Z,97110.88
2022-09-14T17:05:05.366Z,97122.72
2022-09-14T17:07:33.775Z,97121.63
2022-09-14T17:10:02.098Z,97102.97
2022-09-14T17:12:30.485Z,97108.22
2022-09-14T17:14:58.922Z,97107.41
2022-09-14T17:17:27.155Z,97104.84
2022-09-14T17:19:55.545Z,97116.50
2022-09-14T17:22:25.330Z,97124.69
2022-09-14T17:24:53.657Z,97126.84
2022-09-14T17:27:21.919Z,97129.66
2022-09-14T17:29:50.794Z,97130.97
2022-09-14T17:32:19.179Z,97125.72
2022-09-14T17:34:47.740Z,97117.25
2022-09-14T17:37:15.983Z,97117.25
2022-09-14T17:39:45.757Z,97113.44
2022-09-14T17:42:14.022Z,97120.34
2022-09-14T17:44:43.001Z,97123.44
2022-09-14T17:47:11.556Z,97122.97
2022-09-14T17:49:39.883Z,97123.28
2022-09-14T17:52:08.263Z,97122.63
2022-09-14T17:54:36.588Z,97129.69
2022-09-14T17:57:06.388Z,97120.00
2022-09-14T17:59:34.750Z,97126.91
2022-09-14T18:02:02.983Z,97125.91
2022-09-14T18:04:31.319Z,97128.06
2022-09-14T18:06:59.812Z,97125.63
2022-09-14T18:09:28.415Z,97123.47
2022-09-14T18:11:58.120Z,97128.25
2022-09-14T18:14:28.361Z,97126.63
2022-09-14T18:16:58.215Z,97133.84
2022-09-14T18:19:26.733Z,97134.00
2022-09-14T18:21:55.040Z,97132.56
2022-09-14T18:24:23.435Z,97136.31
2022-09-14T18:26:52.000Z,97142.38
2022-09-14T18:29:23.214Z,97141.38
2022-09-14T18:31:54.374Z,97129.25
2022-09-14T18:34:24.150Z,97134.50
2022-09-14T18:36:52.922Z,97132.06
2022-09-14T18:39:21.269Z,97131.41
2022-09-14T18:41:53.652Z,97135.19
2022-09-14T18:44:22.330Z,97145.69
2022-09-14T18:46:52.248Z,97144.69
2022-09-14T18:49:20.971Z,97139.59
2022-09-14T18:51:49.421Z,97139.47
2022-09-14T18:54:18.540Z,97137.81
2022-09-14T18:56:46.925Z,97147.47
2022-09-14T18:59:16.480Z,97143.38
2022-09-14T19:01:45.190Z,97144.72
2022-09-14T19:04:15.852Z,97133.41
2022-09-14T19:06:44.727Z,97142.72
2022-09-14T19:09:13.341Z,97137.81
2022-09-14T19:11:42.092Z,97139.81
2022-09-14T19:14:13.750Z,97136.50
2022-09-14T19:16:43.187Z,97130.31
2022-09-14T19:19:16.000Z,97130.31
2022-09-14T19:21:45.802Z,97133.56
2022-09-14T19:24:17.504Z,97136.88
2022-09-14T19:26:48.706Z,97138.16
2022-09-14T19:29:23.338Z,97153.22
2022-09-14T19:31:52.397Z,97144.22
2022-09-14T19:34:25.258Z,97150.13
2022-09-14T19:36:54.623Z,97139.16
2022-09-14T19:39:24.314Z,97149.97
2022-09-14T19:41:52.792Z,97138.19
2022-09-14T19:44:23.101Z,97155.06
2022-09-14T19:46:51.821Z,97152.94
2022-09-14T19:49:23.653Z,97163.22
2022-09-14T19:51:52.805Z,97173.53
2022-09-14T19:54:21.442Z,97171.56
2022-09-14T19:56:50.162Z,97167.47
2022-09-14T19:59:18.566Z,97159.81
2022-09-14T20:01:47.562Z,97166.50
2022-09-14T20:04:18.196Z,97165.69
2022-09-14T20:06:48.494Z,97169.44
2022-09-14T20:11:28.403Z,97182.38
2022-09-14T20:13:59.037Z,97185.63
2022-09-14T20:16:30.844Z,97186.63
2022-09-14T20:19:03.806Z,97184.63
2022-09-14T20:21:32.519Z,97179.41
2022-09-14T20:24:15.561Z,97182.19
2022-09-14T20:26:47.297Z,97190.69
2022-09-14T20:29:16.464Z,97188.88
2022-09-14T20:31:45.555Z,97185.63
2022-09-14T20:34:15.599Z,97183.19
2022-09-14T20:36:44.022Z,97184.63
2022-09-14T20:39:12.520Z,97184.94
2022-09-14T20:41:41.061Z,97182.34
2022-09-14T20:44:11.884Z,97185.13
2022-09-14T20:46:42.889Z,97190.19
2022-09-14T20:49:16.276Z,97196.72
2022-09-14T20:51:44.797Z,97194.78
2022-09-14T20:54:15.720Z,97196.72
2022-09-14T20:56:45.970Z,97198.38
2022-09-14T20:59:18.099Z,97194.78
2022-09-14T21:01:49.388Z,97203.28
2022-09-14T21:04:21.980Z,97208.19
2022-09-14T21:06:53.487Z,97204.59
2022-09-14T21:09:24.353Z,97197.22
2022-09-14T21:11:53.585Z,97195.78
2022-09-14T21:14:24.014Z,97189.38
2022-09-14T21:16:56.616Z,97189.22
2022-09-14T21:19:28.186Z,97191.03
2022-09-14T21:21:56.774Z,97181.69
2022-09-14T21:24:25.858Z,97171.22
2022-09-14T21:26:54.167Z,97167.94
2022-09-14T21:29:24.595Z,97178.75
2022-09-14T21:31:53.611Z,97174.47
2022-09-14T21:34:22.559Z,97183.50
2022-09-14T21:36:52.694Z,97179.41
2022-09-14T21:39:24.891Z,97175.78
2022-09-14T21:41:58.864Z,97178.41
2022-09-14T21:44:33.017Z,97182.19
2022-09-14T21:47:01.733Z,97169.91
2022-09-14T21:49:30.327Z,97162.88
2022-09-14T21:51:58.629Z,97161.25
2022-09-14T21:54:27.073Z,97167.31
2022-09-14T21:56:55.933Z,97170.06
2022-09-14T21:59:24.931Z,97179.22
2022-09-14T22:01:54.604Z,97167.63
2022-09-14T22:04:25.048Z,97161.88
2022-09-14T22:06:53.933Z,97164.69
2022-09-14T22:09:25.123Z,97166.63
2022-09-14T22:11:53.885Z,97178.25
2022-09-14T22:14:26.748Z,97164.81
2022-09-14T22:16:56.876Z,97165.78
2022-09-14T22:19:29.261Z,97162.38
2022-09-14T22:21:58.138Z,97165.78
2022-09-14T22:24:34.824Z,97182.13
2022-09-14T22:27:07.095Z,97183.28
2022-09-14T22:29:35.363Z,97185.59
2022-09-14T22:32:11.154Z,97190.66
2022-09-14T22:34:41.399Z,97198.66
2022-09-14T22:37:10.830Z,97202.25
2022-09-14T22:39:39.137Z,97206.97
2022-09-14T22:42:07.704Z,97202.09
2022-09-14T22:44:35.960Z,97207.63
2022-09-14T22:47:05.752Z,97203.53
2022-09-14T22:49:34.166Z,97204.69
2022-09-14T22:52:03.036Z,97207.94
2022-09-14T22:54:31.313Z,97218.06
2022-09-14T22:56:59.540Z,97212.53
2022-09-14T22:59:27.767Z,97211.34
2022-09-14T23:01:56.200Z,97213.59
2022-09-14T23:04:27.234Z,97210.81
2022-09-14T23:06:55.455Z,97209.00
2022-09-14T23:09:23.925Z,97209.00
2022-09-14T23:11:52.202Z,97221.44
2022-09-14T23:14:20.531Z,97231.91
2022-09-14T23:16:48.842Z,97215.81
2022-09-14T23:19:19.134Z,97228.22
2022-09-14T23:21:48.783Z,97218.25
2022-09-14T23:24:17.562Z,97231.47
2022-09-14T23:26:45.955Z,97234.25
2022-09-14T23:29:16.576Z,97240.09
2022-09-14T23:31:45.489Z,97234.34
2022-09-14T23:34:13.925Z,97236.00
2022-09-14T23:36:42.616Z,97246.47
2022-09-14T23:39:12.225Z,97249.88
2022-09-14T23:41:40.807Z,97248.75
2022-09-14T23:44:13.405Z,97261.50
2022-09-14T23:46:41.952Z,97251.03
2022-09-14T23:49:12.136Z,97252.03
2022-09-14T23:51:40.784Z,97248.09
2022-09-14T23:54:11.178Z,97240.38
2022-09-14T23:56:39.608Z,97231.09
2022-09-14T23:59:10.352Z,97228.31
